Indian Hills, CO (80454)

6:23 AM MST on December 25, 2014 (GMT -0700)
Lower Valley/Post Office | Change Station
CLOSE
Current Station
Personal Weather Station
Location: Indian Hills, CO
Elevation: 6920 ft
Nearby Weather Stations
Active Advisory: Winter Storm Warning Active Notice: Public Information Statement

Elev 6920 ft 39.62 °N, 105.24 °W | Updated 6 seconds ago

Partly Cloudy
Partly Cloudy
24.4 °F
Feels Like 24 °F
N
2.0
Wind Variable Wind from West
Gusts 2.0 mph

Today
High -- | Low -- °F
--% Chance of Precip.
Yesterday
High -- | Low -- °F
Precip. -- in
7:20 AM 4:42 PM
Waxing Crescent, 16% visible
Pressure 29.37 in
Visibility 20.0 miles
Clouds Few 20000 ft
Windchill 24 °F
Dew Point 15 °F
Humidity 68%
Rainfall 0.00 in
Snow Depth Not available.
UV 0 out of 12
Pollen .10 out of 12
Air Quality Not available.
Flu Activity Not available.
METAR KBJC 251247Z 00000KT 20SM FEW200 03/M09 A2937

More Conditions Fewer Conditions

Pressure 29.37 in
Visibility 20.0 miles
Clouds Few 20000 ft
Windchill 24 °F
Dew Point 15 °F
Humidity 68%
Rainfall 0.00 in
Snow Depth Not available.
UV 0 out of 12
Pollen .10 out of 12
Air Quality Not available.
Flu Activity Not available.
METAR KBJC 251247Z 00000KT 20SM FEW200 03/M09 A2937

More Conditions Fewer Conditions

10-Day Weather Forecast

Almanac

Astronomy

Dec. 25, 2014 Rise Set
Actual Time
Civil Twilight
Nautical Twilight
Astronomical Twilight
Moon
Length of Visible Light
Length of Day
Tomorrow will be .
, % of the Moon is Illuminated

Today's Extremes

State Highs State Lows

Community

WunderPhotos

Upload Photos

1,780,271 photos uploaded!

WunderBlogs® & News

Nearby

Air Quality

  Air Quality AQ Index Pollutant
Not available.

Snow Depth

Station Depth Elevation

Earthquake Activity

City Distance Mag. Time & Date
Minimum magnitude displayed is 2.5.

Coastal Water Temperatures

Place Temperature

Nearby Weather Stations